Time;durP1;ratioP1;P1;durP2;ratioP2;P2;SDS_P1;SDS_P2;PMS_P1;PMS_P2;Temp;Humidity;BMP_temperature;BMP_pressure;BME280_temperature;BME280_humidity;BME280_pressure;Samples;Min_cycle;Max_cycle;Signal;HPM_P1;HPM_P2
2023/12/09 00:02:04;;;;;;;30.13;16.17;;;;;;;3.44;100.00;100452.28;5076561;28;20592;-72
2023/12/09 00:04:32;;;;;;;30.70;16.53;;;;;;;3.44;100.00;100452.28;5080298;28;20212;-71
2023/12/09 00:06:59;;;;;;;31.57;16.17;;;;;;;3.43;100.00;100456.69;5086502;28;20224;-70
2023/12/09 00:09:25;;;;;;;30.87;16.47;;;;;;;3.41;100.00;100461.13;5080870;28;20204;-72
2023/12/09 00:11:52;;;;;;;35.23;17.67;;;;;;;3.40;100.00;100461.22;5084929;28;20680;-69
2023/12/09 00:14:18;;;;;;;29.43;16.80;;;;;;;3.37;100.00;100461.34;5086761;28;20584;-70
2023/12/09 00:16:45;;;;;;;37.37;18.10;;;;;;;3.32;100.00;100472.03;5084944;28;20239;-70
2023/12/09 00:19:12;;;;;;;29.93;17.23;;;;;;;3.30;100.00;100465.94;5082041;28;20739;-72
2023/12/09 00:21:40;;;;;;;32.30;17.67;;;;;;;3.27;100.00;100466.06;5083634;28;20201;-71
2023/12/09 00:24:07;;;;;;;34.90;17.80;;;;;;;3.31;100.00;100467.66;5087640;28;20200;-71
2023/12/09 00:26:33;;;;;;;34.73;17.37;;;;;;;3.31;100.00;100469.44;5085113;28;20203;-71
2023/12/09 00:29:00;;;;;;;30.37;17.00;;;;;;;3.31;100.00;100474.72;5084433;28;20207;-70
2023/12/09 00:31:26;;;;;;;33.73;17.20;;;;;;;3.31;100.00;100469.44;5084214;28;20287;-71
2023/12/09 00:33:53;;;;;;;31.87;16.70;;;;;;;3.29;100.00;100468.63;5083547;28;20216;-69
2023/12/09 00:36:19;;;;;;;29.83;16.70;;;;;;;3.31;100.00;100469.44;5084572;28;20207;-72
2023/12/09 00:38:47;;;;;;;34.20;17.93;;;;;;;3.33;100.00;100468.47;5084936;28;20235;-69
2023/12/09 00:41:14;;;;;;;28.67;16.53;;;;;;;3.32;100.00;100464.13;5085254;28;20261;-70
2023/12/09 00:43:40;;;;;;;29.63;16.50;;;;;;;3.37;100.00;100461.34;5087429;28;20204;-70
2023/12/09 00:46:07;;;;;;;33.27;17.17;;;;;;;3.35;100.00;100461.38;5081102;28;20283;-72
2023/12/09 00:48:33;;;;;;;33.07;17.73;;;;;;;3.31;100.00;100469.44;5083147;28;20223;-74
2023/12/09 00:51:00;;;;;;;34.50;17.77;;;;;;;3.31;100.00;100464.19;5084783;28;20200;-70
2023/12/09 00:53:26;;;;;;;31.60;16.60;;;;;;;3.27;100.00;100476.59;5086010;28;20309;-72
2023/12/09 00:55:54;;;;;;;28.93;16.03;;;;;;;3.26;100.00;100471.38;5086324;28;20438;-72
2023/12/09 00:58:21;;;;;;;28.83;16.30;;;;;;;3.24;100.00;100468.78;5083788;28;20239;-72
2023/12/09 01:00:47;;;;;;;26.90;15.83;;;;;;;3.27;100.00;100468.69;5084209;28;20204;-70
2023/12/09 01:03:14;;;;;;;30.87;15.60;;;;;;;3.29;100.00;100461.59;5082730;28;20288;-74
2023/12/09 01:05:40;;;;;;;27.23;14.97;;;;;;;3.33;100.00;100472.88;5079242;28;20219;-72
2023/12/09 01:08:07;;;;;;;24.50;14.00;;;;;;;3.38;100.00;100458.66;5081915;28;20244;-72
2023/12/09 01:10:33;;;;;;;22.27;11.47;;;;;;;3.48;100.00;100441.56;5079514;28;20699;-73
2023/12/09 01:13:01;;;;;;;21.80;13.17;;;;;;;3.52;100.00;100446.72;5082166;28;20207;-72
2023/12/09 01:15:27;;;;;;;20.97;12.63;;;;;;;3.53;100.00;100453.72;5083832;28;20209;-72
2023/12/09 01:17:54;;;;;;;24.90;15.37;;;;;;;3.48;100.00;100448.63;5073484;28;20475;-71
2023/12/09 01:20:20;;;;;;;28.37;14.20;;;;;;;3.42;100.00;100451.47;5074137;28;20216;-71
2023/12/09 01:22:46;;;;;;;24.63;15.27;;;;;;;3.35;100.00;100463.16;5082438;28;20294;-74
2023/12/09 01:25:13;;;;;;;26.60;15.57;;;;;;;3.28;100.00;100465.16;5086363;28;20201;-71
2023/12/09 01:27:39;;;;;;;23.20;14.63;;;;;;;3.24;100.00;100473.19;5080154;28;20220;-73
2023/12/09 01:30:09;;;;;;;23.67;14.40;;;;;;;3.19;100.00;100486.53;5078930;28;20209;-71
2023/12/09 01:32:35;;;;;;;26.33;14.50;;;;;;;3.12;100.00;100485.03;5074749;28;20209;-72
2023/12/09 01:35:02;;;;;;;25.17;15.67;;;;;;;3.11;100.00;100488.56;5077824;28;20204;-72
2023/12/09 01:37:28;;;;;;;29.87;15.50;;;;;;;3.08;100.00;100483.41;5082246;22;20221;-73
2023/12/09 01:39:55;;;;;;;24.53;15.00;;;;;;;3.06;100.00;100479.97;5061135;28;20240;-73
2023/12/09 01:42:21;;;;;;;22.67;14.83;;;;;;;3.02;100.00;100476.63;5066310;28;20201;-73
2023/12/09 01:44:48;;;;;;;23.93;14.27;;;;;;;3.02;100.00;100470.50;5064540;28;20205;-74
2023/12/09 01:47:16;;;;;;;23.20;13.83;;;;;;;3.01;100.00;100472.28;5053147;28;20230;-73
2023/12/09 01:49:43;;;;;;;22.00;12.87;;;;;;;3.02;100.00;100481.03;5046073;28;20205;-71
2023/12/09 01:52:09;;;;;;;20.37;11.97;;;;;;;3.00;100.00;100480.22;5042508;28;20221;-73
2023/12/09 01:54:36;;;;;;;20.00;11.50;;;;;;;3.01;100.00;100476.66;5044573;28;20244;-73
2023/12/09 01:57:03;;;;;;;20.07;11.43;;;;;;;3.07;100.00;100469.41;5042066;28;20237;-73
2023/12/09 01:59:30;;;;;;;19.57;11.43;;;;;;;3.20;100.00;100463.72;5051494;28;20240;-74
2023/12/09 02:01:58;;;;;;;20.80;11.57;;;;;;;3.24;100.00;100468.78;5042310;28;20205;-71
2023/12/09 02:04:26;;;;;;;18.30;10.63;;;;;;;3.31;100.00;100461.53;5039015;28;20213;-72
2023/12/09 02:06:53;;;;;;;19.33;10.67;;;;;;;3.37;100.00;100459.56;5050360;28;20232;-74
2023/12/09 02:09:20;;;;;;;16.37;10.60;;;;;;;3.43;100.00;100458.44;5044786;28;20198;-73
2023/12/09 02:11:53;;;;;;;17.00;11.00;;;;;;;3.48;100.00;100453.88;5044908;28;20263;-73
2023/12/09 02:14:27;;;;;;;17.60;10.60;;;;;;;3.51;100.00;100448.50;5042076;28;20300;-72
2023/12/09 02:17:04;;;;;;;16.03;10.63;;;;;;;3.59;100.00;100446.44;5050085;28;20240;-74
2023/12/09 02:19:32;;;;;;;15.97;9.40;;;;;;;3.59;100.00;100442.94;5040064;28;20270;-73
2023/12/09 02:22:00;;;;;;;17.10;10.57;;;;;;;3.59;100.00;100458.72;5046384;28;20693;-73
2023/12/09 02:24:28;;;;;;;25.63;12.70;;;;;;;3.55;100.00;100467.69;5044098;28;20213;-73
2023/12/09 02:26:59;;;;;;;18.33;12.60;;;;;;;3.51;100.00;100476.63;5050323;28;20222;-73
2023/12/09 02:29:27;;;;;;;16.53;10.23;;;;;;;3.54;100.00;100452.81;5043825;28;20715;-72
2023/12/09 02:32:01;;;;;;;17.63;10.13;;;;;;;3.61;100.00;100451.63;5031673;28;20217;-72
2023/12/09 02:34:30;;;;;;;14.90;9.63;;;;;;;3.62;100.00;100456.00;5037351;28;20818;-71
2023/12/09 02:36:59;;;;;;;16.37;10.87;;;;;;;3.66;100.00;100455.81;5040166;28;20264;-73
2023/12/09 02:39:26;;;;;;;18.57;10.03;;;;;;;3.74;100.00;100453.78;5040242;28;20218;-72
2023/12/09 02:41:55;;;;;;;16.40;9.77;;;;;;;3.76;100.00;100461.63;5041397;28;20209;-73
2023/12/09 02:44:22;;;;;;;14.00;9.07;;;;;;;3.77;100.00;100453.63;5047845;28;20201;-72
2023/12/09 02:46:55;;;;;;;14.30;9.40;;;;;;;3.82;100.00;100454.31;5045373;28;20244;-71
2023/12/09 02:49:22;;;;;;;12.83;8.03;;;;;;;3.83;100.00;100455.16;5040175;28;20210;-73
2023/12/09 02:51:48;;;;;;;16.50;9.47;;;;;;;3.86;100.00;100457.69;5044265;28;20213;-73
2023/12/09 02:54:14;;;;;;;10.63;7.40;;;;;;;3.93;100.00;100442.53;5041607;28;20200;-73
2023/12/09 02:56:41;;;;;;;12.03;7.60;;;;;;;3.97;100.00;100439.69;5042910;28;20225;-72
2023/12/09 02:59:09;;;;;;;11.07;7.43;;;;;;;3.99;100.00;100439.63;5043296;28;20236;-72
2023/12/09 03:01:35;;;;;;;12.10;7.50;;;;;;;3.97;100.00;100442.31;5041469;28;20202;-73
2023/12/09 03:04:02;;;;;;;13.20;8.60;;;;;;;3.98;100.00;100449.31;5045499;28;20209;-73
2023/12/09 03:06:29;;;;;;;11.30;8.10;;;;;;;4.00;100.00;100447.47;5043829;28;20229;-72
2023/12/09 03:08:55;;;;;;;13.03;7.13;;;;;;;4.03;100.00;100451.75;5045959;28;20225;-73
2023/12/09 03:11:21;;;;;;;13.47;7.30;;;;;;;4.03;100.00;100444.72;5044459;28;20584;-71
2023/12/09 03:13:48;;;;;;;13.57;7.07;;;;;;;4.08;100.00;100437.50;5044394;28;20225;-73
2023/12/09 03:16:16;;;;;;;11.53;7.40;;;;;;;4.07;100.00;100435.78;5038973;28;20232;-72
2023/12/09 03:18:42;;;;;;;10.30;7.43;;;;;;;4.08;100.00;100436.63;5041133;28;20226;-73
2023/12/09 03:21:14;;;;;;;11.17;7.30;;;;;;;4.12;100.00;100436.44;5042449;28;20452;-72
2023/12/09 03:23:42;;;;;;;10.67;7.10;;;;;;;4.15;100.00;100432.81;5041517;28;20206;-73
2023/12/09 03:26:14;;;;;;;15.07;8.07;;;;;;;4.13;100.00;100435.50;5038903;28;20221;-74
2023/12/09 03:28:41;;;;;;;11.47;6.67;;;;;;;4.15;100.00;100427.53;5036167;28;20202;-72
2023/12/09 03:31:08;;;;;;;9.87;6.10;;;;;;;4.16;100.00;100416.94;5044735;28;20607;-72
2023/12/09 03:33:35;;;;;;;11.17;7.23;;;;;;;4.18;100.00;100420.38;5046511;28;20212;-72
2023/12/09 03:36:02;;;;;;;12.93;7.53;;;;;;;4.22;100.00;100422.88;5042714;28;20209;-71
2023/12/09 03:38:29;;;;;;;12.50;7.43;;;;;;;4.24;100.00;100418.41;5047110;28;20753;-72
2023/12/09 03:40:55;;;;;;;13.27;7.63;;;;;;;4.21;100.00;100410.63;5045650;28;20684;-74
2023/12/09 03:43:22;;;;;;;13.13;7.83;;;;;;;4.23;100.00;100412.28;5040010;28;20700;-70
2023/12/09 03:45:48;;;;;;;12.50;7.47;;;;;;;4.25;100.00;100404.31;5045775;28;20690;-72
2023/12/09 03:48:15;;;;;;;13.20;7.27;;;;;;;4.25;100.00;100402.53;5041358;28;20595;-73
2023/12/09 03:50:41;;;;;;;9.20;6.10;;;;;;;4.26;100.00;100406.91;5040846;28;20202;-72
2023/12/09 03:53:08;;;;;;;9.20;6.23;;;;;;;4.23;100.00;100387.72;5040781;28;20301;-73
2023/12/09 03:55:35;;;;;;;8.77;6.00;;;;;;;4.25;100.00;100391.13;5044841;28;20208;-74
2023/12/09 03:58:01;;;;;;;10.47;6.93;;;;;;;4.23;100.00;100382.44;5043018;28;20303;-72
2023/12/09 04:00:29;;;;;;;10.77;6.30;;;;;;;4.23;100.00;100379.81;5045610;28;20240;-72
2023/12/09 04:02:55;;;;;;;13.77;6.50;;;;;;;4.25;100.00;100388.50;5042782;28;20201;-72
2023/12/09 04:05:22;;;;;;;8.97;6.23;;;;;;;4.27;100.00;100391.94;5041687;28;20214;-73
2023/12/09 04:07:50;;;;;;;12.57;6.77;;;;;;;4.30;100.00;100386.53;5042748;28;20233;-71
2023/12/09 04:10:17;;;;;;;11.47;6.60;;;;;;;4.29;100.00;100376.91;5044754;28;20205;-73
2023/12/09 04:12:44;;;;;;;9.73;6.93;;;;;;;4.31;100.00;100380.31;5046959;28;20240;-73
2023/12/09 04:15:11;;;;;;;11.13;6.90;;;;;;;4.25;100.00;100375.31;5046862;28;20201;-72
2023/12/09 04:17:38;;;;;;;10.47;7.00;;;;;;;4.27;100.00;100379.63;5043223;28;21522;-72
2023/12/09 04:20:05;;;;;;;15.13;7.70;;;;;;;4.25;100.00;100385.88;5040212;28;20234;-73
2023/12/09 04:22:32;;;;;;;13.33;6.87;;;;;;;4.25;100.00;100386.72;5043452;28;20209;-73
2023/12/09 04:25:00;;;;;;;10.90;7.27;;;;;;;4.28;100.00;100383.09;5039981;28;20206;-72
2023/12/09 04:27:26;;;;;;;13.37;7.43;;;;;;;4.28;100.00;100391.03;5041479;28;20225;-72
2023/12/09 04:29:52;;;;;;;10.80;7.07;;;;;;;4.29;100.00;100387.47;5041813;28;20206;-73
2023/12/09 04:32:19;;;;;;;11.00;7.00;;;;;;;4.27;100.00;100384.88;5043731;28;20206;-72
2023/12/09 04:34:45;;;;;;;9.90;6.90;;;;;;;4.25;100.00;100378.81;5043862;28;20225;-73
2023/12/09 04:37:12;;;;;;;12.03;6.67;;;;;;;4.29;100.00;100371.66;5043096;28;20238;-73
2023/12/09 04:39:38;;;;;;;12.27;6.43;;;;;;;4.28;100.00;100377.84;5043281;28;20225;-73
2023/12/09 04:42:06;;;;;;;11.23;6.80;;;;;;;4.26;100.00;100384.94;5043644;28;20594;-73
2023/12/09 04:44:33;;;;;;;12.20;7.93;;;;;;;4.25;100.00;100385.88;5045340;28;20202;-73
2023/12/09 04:46:59;;;;;;;13.60;7.60;;;;;;;4.22;100.00;100380.72;5044008;28;20233;-73
2023/12/09 04:49:26;;;;;;;16.27;8.20;;;;;;;4.18;100.00;100386.09;5043698;28;20803;-72
2023/12/09 04:51:52;;;;;;;12.50;7.73;;;;;;;4.24;100.00;100373.59;5046917;28;20212;-73
2023/12/09 04:54:18;;;;;;;11.97;7.07;;;;;;;4.23;100.00;100374.53;5047280;28;20210;-73
2023/12/09 04:56:45;;;;;;;9.87;6.97;;;;;;;4.21;100.00;100369.31;5050796;28;20238;-73
2023/12/09 04:59:13;;;;;;;13.63;7.37;;;;;;;4.15;100.00;100365.16;5047208;28;20212;-73
2023/12/09 05:01:40;;;;;;;11.47;7.50;;;;;;;4.15;100.00;100370.41;5044662;28;20201;-73
2023/12/09 05:04:07;;;;;;;12.20;7.13;;;;;;;4.17;100.00;100367.72;5045432;28;20289;-74
2023/12/09 05:06:34;;;;;;;11.63;6.07;;;;;;;4.18;100.00;100375.56;5047750;28;20234;-74
2023/12/09 05:09:00;;;;;;;15.03;7.90;;;;;;;4.16;100.00;100363.38;5046144;28;20202;-71
2023/12/09 05:11:27;;;;;;;10.13;6.30;;;;;;;4.21;100.00;100371.09;5048425;28;20680;-73
2023/12/09 05:13:53;;;;;;;11.63;6.23;;;;;;;4.22;100.00;100365.75;5045738;28;21240;-72
2023/12/09 05:16:21;;;;;;;9.43;6.63;;;;;;;4.26;100.00;100363.84;5047160;28;20724;-73
2023/12/09 05:18:48;;;;;;;9.90;6.10;;;;;;;4.31;100.00;100375.03;5047169;28;20219;-73
2023/12/09 05:21:14;;;;;;;9.17;5.70;;;;;;;4.33;100.00;100367.94;5045534;28;20229;-73
2023/12/09 05:23:41;;;;;;;9.63;5.30;;;;;;;4.36;100.00;100370.44;5046715;28;20209;-73
2023/12/09 05:26:08;;;;;;;9.07;5.87;;;;;;;4.40;100.00;100366.75;5042241;28;20225;-71
2023/12/09 05:28:35;;;;;;;9.70;5.70;;;;;;;4.42;100.00;100359.66;5046983;28;20213;-72
2023/12/09 05:31:02;;;;;;;8.40;5.67;;;;;;;4.47;100.00;100365.59;5047910;28;20301;-73
2023/12/09 05:33:30;;;;;;;8.57;5.53;;;;;;;4.43;100.00;100356.94;5047266;28;20226;-73
2023/12/09 05:35:56;;;;;;;10.63;6.87;;;;;;;4.44;100.00;100355.16;5045771;28;20334;-73
2023/12/09 05:38:23;;;;;;;10.97;7.73;;;;;;;4.43;100.00;100362.22;5047521;28;20201;-73
2023/12/09 05:40:49;;;;;;;10.53;7.60;;;;;;;4.40;100.00;100361.50;5046241;28;20217;-72
2023/12/09 05:43:16;;;;;;;12.17;7.80;;;;;;;4.32;100.00;100351.25;5047776;28;20252;-72
2023/12/09 05:45:42;;;;;;;13.43;8.60;;;;;;;4.24;100.00;100350.75;5045932;28;20217;-73
2023/12/09 05:48:08;;;;;;;13.73;8.23;;;;;;;4.17;100.00;100352.75;5045260;28;20575;-71
2023/12/09 05:50:36;;;;;;;16.57;9.33;;;;;;;4.13;100.00;100352.94;5045730;28;20677;-72
2023/12/09 05:53:03;;;;;;;11.43;8.37;;;;;;;4.06;100.00;100360.28;5048179;28;20201;-73
2023/12/09 05:55:29;;;;;;;13.53;8.47;;;;;;;4.03;100.00;100355.13;5045592;28;20662;-71
2023/12/09 05:57:55;;;;;;;14.53;8.37;;;;;;;3.99;100.00;100357.94;5043976;28;20229;-72
2023/12/09 06:00:22;;;;;;;15.67;10.07;;;;;;;3.92;100.00;100364.41;5048607;28;20217;-72
2023/12/09 06:02:48;;;;;;;13.67;9.07;;;;;;;3.86;100.00;100373.41;5046206;28;20209;-72
2023/12/09 06:05:15;;;;;;;14.63;8.27;;;;;;;3.82;100.00;100382.34;5047222;28;20205;-72
2023/12/09 06:07:43;;;;;;;13.03;8.83;;;;;;;3.74;100.00;100392.34;5046286;28;20230;-73
2023/12/09 06:10:10;;;;;;;15.37;9.10;;;;;;;3.66;100.00;100379.44;5047910;28;20206;-71
2023/12/09 06:12:36;;;;;;;11.60;8.50;;;;;;;3.62;100.00;100384.88;5044528;28;20209;-72
2023/12/09 06:15:03;;;;;;;13.10;9.00;;;;;;;3.61;100.00;100380.53;5046449;28;20212;-72
2023/12/09 06:17:29;;;;;;;14.00;9.40;;;;;;;3.57;100.00;100382.47;5045079;28;20221;-73
2023/12/09 06:19:56;;;;;;;13.53;8.80;;;;;;;3.55;100.00;100380.81;5045851;28;20236;-73
2023/12/09 06:22:22;;;;;;;13.73;8.37;;;;;;;3.49;100.00;100372.22;5044566;28;20220;-73
2023/12/09 06:24:51;;;;;;;14.90;8.10;;;;;;;3.46;100.00;100371.47;5044889;28;20234;-73
2023/12/09 06:27:17;;;;;;;12.50;8.10;;;;;;;3.41;100.00;100366.38;5045806;28;20312;-73
2023/12/09 06:29:45;;;;;;;13.37;8.20;;;;;;;3.37;100.00;100372.69;5044681;28;20202;-74
2023/12/09 06:32:11;;;;;;;12.80;8.17;;;;;;;3.29;100.00;100371.25;5040416;28;20252;-73
2023/12/09 06:34:38;;;;;;;12.80;8.93;;;;;;;3.22;100.00;100372.41;5041728;28;20202;-73
2023/12/09 06:37:04;;;;;;;15.77;8.13;;;;;;;3.19;100.00;100364.63;5046079;28;20618;-73
2023/12/09 06:39:31;;;;;;;11.70;8.73;;;;;;;3.14;100.00;100365.66;5043823;28;20203;-73
2023/12/09 06:41:59;;;;;;;14.70;9.03;;;;;;;3.11;100.00;100368.41;5045828;28;20221;-73
2023/12/09 06:44:25;;;;;;;14.60;9.77;;;;;;;3.09;100.00;100358.84;5041561;28;20210;-73
2023/12/09 06:46:52;;;;;;;12.93;8.53;;;;;;;3.07;100.00;100368.56;5045227;28;20244;-74
2023/12/09 06:49:19;;;;;;;14.43;9.40;;;;;;;3.04;100.00;100360.81;5043613;28;20213;-73
2023/12/09 06:51:45;;;;;;;13.03;9.33;;;;;;;3.00;100.00;100362.69;5043284;28;20214;-73
2023/12/09 06:54:12;;;;;;;14.00;9.60;;;;;;;2.98;100.00;100369.78;5044497;28;20676;-73
2023/12/09 06:56:39;;;;;;;15.30;9.63;;;;;;;2.96;100.00;100366.34;5042464;28;20223;-73
2023/12/09 06:59:07;;;;;;;14.23;9.13;;;;;;;2.97;100.00;100359.31;5046295;28;20713;-73
2023/12/09 07:01:34;;;;;;;13.57;9.37;;;;;;;2.99;100.00;100365.38;5040273;28;20254;-74
2023/12/09 07:04:01;;;;;;;14.33;9.67;;;;;;;2.98;100.00;100363.66;5046094;28;20201;-74
2023/12/09 07:06:29;;;;;;;13.70;10.00;;;;;;;2.92;100.00;100362.09;5041631;28;20221;-73
2023/12/09 07:08:57;;;;;;;14.70;9.73;;;;;;;2.93;100.00;100369.06;5043164;28;20661;-73
2023/12/09 07:11:24;;;;;;;14.90;9.67;;;;;;;2.92;100.00;100367.34;5042818;28;20270;-74
2023/12/09 07:13:50;;;;;;;14.23;10.10;;;;;;;2.90;100.00;100377.06;5042269;28;20217;-73
2023/12/09 07:16:18;;;;;;;12.97;9.60;;;;;;;2.92;100.00;100377.88;5043559;28;20224;-74
2023/12/09 07:18:46;;;;;;;13.83;8.97;;;;;;;2.92;100.00;100377.03;5044296;28;20213;-74
2023/12/09 07:21:12;;;;;;;13.83;8.90;;;;;;;2.92;100.00;100380.50;5040510;28;20701;-74
2023/12/09 07:23:39;;;;;;;11.60;7.67;;;;;;;2.95;100.00;100364.63;5045508;28;20212;-73
2023/12/09 07:26:06;;;;;;;12.03;7.20;;;;;;;2.97;100.00;100375.94;5044974;28;20715;-73
2023/12/09 07:28:33;;;;;;;10.23;7.47;;;;;;;2.97;100.00;100367.19;5042919;28;20220;-73
2023/12/09 07:30:59;;;;;;;10.63;7.30;;;;;;;3.02;100.00;100365.25;5043467;28;20213;-73
2023/12/09 07:33:27;;;;;;;10.67;6.53;;;;;;;3.08;100.00;100357.13;5041640;28;20205;-73
2023/12/09 07:35:54;;;;;;;11.43;7.50;;;;;;;3.10;100.00;100356.16;5045005;28;20212;-73
2023/12/09 07:38:21;;;;;;;12.63;8.10;;;;;;;3.07;100.00;100351.00;5102127;22;20234;-73
2023/12/09 07:40:48;;;;;;;14.23;9.30;;;;;;;3.08;100.00;100341.34;5082599;28;20224;-72
2023/12/09 07:43:14;;;;;;;18.97;9.57;;;;;;;3.04;100.00;100331.88;5081513;28;20668;-72
2023/12/09 07:45:41;;;;;;;10.57;8.30;;;;;;;3.01;100.00;100334.59;5081971;28;20705;-73
2023/12/09 07:48:08;;;;;;;11.87;9.07;;;;;;;2.95;100.00;100330.44;5079682;28;20225;-73
2023/12/09 07:50:36;;;;;;;12.07;8.20;;;;;;;2.92;100.00;100324.41;5079310;28;20224;-72
2023/12/09 07:53:02;;;;;;;14.17;7.70;;;;;;;2.93;100.00;100324.38;5074552;28;20215;-74
2023/12/09 07:55:29;;;;;;;12.07;7.80;;;;;;;2.94;100.00;100309.44;5080383;28;20950;-72
2023/12/09 07:57:56;;;;;;;13.07;7.87;;;;;;;2.92;100.00;100314.75;5078886;28;20217;-73
2023/12/09 08:00:26;;;;;;;13.73;7.53;;;;;;;2.96;100.00;100308.47;5077734;28;20256;-73
2023/12/09 08:02:54;;;;;;;9.77;7.60;;;;;;;2.98;100.00;100305.78;5078917;28;20205;-73
2023/12/09 08:05:21;;;;;;;13.43;8.43;;;;;;;3.00;100.00;100306.59;5080392;28;20577;-75
2023/12/09 08:07:49;;;;;;;14.30;9.07;;;;;;;3.01;100.00;100306.53;5077697;28;20231;-73
2023/12/09 08:10:15;;;;;;;14.57;9.27;;;;;;;3.04;100.00;100300.31;5077441;28;20204;-74
2023/12/09 08:12:42;;;;;;;16.63;9.27;;;;;;;3.08;100.00;100304.50;5077616;28;20836;-72
2023/12/09 08:15:10;;;;;;;13.40;7.37;;;;;;;3.16;100.00;100309.50;5072636;28;20715;-71
2023/12/09 08:17:37;;;;;;;14.90;7.03;;;;;;;3.18;100.00;100307.66;5077787;28;20784;-73
2023/12/09 08:20:08;;;;;;;14.27;8.27;;;;;;;3.21;100.00;100299.66;5075489;28;20196;-72
2023/12/09 08:22:35;;;;;;;12.43;7.70;;;;;;;3.24;100.00;100295.09;5070064;28;20270;-72
2023/12/09 08:25:03;;;;;;;15.43;7.33;;;;;;;3.32;100.00;100297.44;5081246;28;20200;-71
2023/12/09 08:27:30;;;;;;;12.13;7.30;;;;;;;3.39;100.00;100307.69;5081182;28;20770;-72
2023/12/09 08:29:56;;;;;;;10.37;5.67;;;;;;;3.46;100.00;100306.50;5081180;28;20687;-72
2023/12/09 08:32:23;;;;;;;9.97;7.50;;;;;;;3.49;100.00;100308.16;5081629;28;20208;-71
2023/12/09 08:34:49;;;;;;;15.00;7.83;;;;;;;3.47;100.00;100300.31;5083161;28;20225;-69
2023/12/09 08:37:24;;;;;;;11.73;7.73;;;;;;;3.51;100.00;100297.56;5083429;28;20236;-69
2023/12/09 08:39:53;;;;;;;13.03;7.50;;;;;;;3.56;100.00;100304.38;5077852;28;20626;-72
2023/12/09 08:42:21;;;;;;;13.00;7.30;;;;;;;3.58;100.00;100307.81;5084030;28;20224;-71
2023/12/09 08:44:48;;;;;;;14.07;6.27;;;;;;;3.67;100.00;100301.31;5077587;28;20213;-72
2023/12/09 08:47:14;;;;;;;13.87;7.20;;;;;;;3.70;100.00;100307.31;5083763;28;20250;-72
2023/12/09 08:49:40;;;;;;;15.53;8.43;;;;;;;3.78;100.00;100302.56;5079920;28;20209;-72
2023/12/09 08:52:07;;;;;;;11.30;6.77;;;;;;;3.84;100.00;100301.47;5084120;28;20193;-72
2023/12/09 08:54:33;;;;;;;11.00;6.63;;;;;;;3.86;100.00;100283.81;5078394;28;20228;-71
2023/12/09 08:57:00;;;;;;;9.60;6.30;;;;;;;3.94;100.00;100286.97;5084767;28;20232;-71
2023/12/09 08:59:28;;;;;;;10.13;6.67;;;;;;;4.03;100.00;100283.13;5079976;28;20217;-71
2023/12/09 09:01:54;;;;;;;10.17;5.50;;;;;;;4.10;100.00;100263.50;5081941;28;20227;-69
2023/12/09 09:04:22;;;;;;;9.60;6.80;;;;;;;4.15;100.00;100264.13;5076167;28;20204;-70
2023/12/09 09:06:48;;;;;;;12.23;5.93;;;;;;;4.21;100.00;100258.59;5073548;28;20235;-73
2023/12/09 09:09:15;;;;;;;10.50;6.30;;;;;;;4.23;100.00;100261.19;5074554;28;20193;-71
2023/12/09 09:11:41;;;;;;;9.80;6.63;;;;;;;4.27;100.00;100263.63;5080251;28;20200;-71
2023/12/09 09:14:08;;;;;;;40.27;8.47;;;;;;;4.32;100.00;100266.03;5077927;28;20216;-72
2023/12/09 09:16:36;;;;;;;19.20;7.60;;;;;;;4.32;100.00;100258.13;5077065;28;20232;-72
2023/12/09 09:19:02;;;;;;;12.30;6.97;;;;;;;4.33;100.00;100259.84;5077147;28;20215;-72
2023/12/09 09:21:28;;;;;;;8.13;4.77;;;;;;;4.39;100.00;100272.78;5077439;28;20224;-72
2023/12/09 09:23:55;;;;;;;13.87;7.87;;;;;;;4.39;100.00;100264.84;5080143;28;20208;-70
2023/12/09 09:26:22;;;;;;;10.50;5.97;;;;;;;4.43;100.00;100266.44;5076181;28;20254;-73
2023/12/09 09:28:48;;;;;;;10.27;5.87;;;;;;;4.41;100.00;100266.50;5079143;28;20204;-72
2023/12/09 09:31:15;;;;;;;14.07;7.70;;;;;;;4.38;100.00;100266.63;5080223;28;20567;-72
2023/12/09 09:33:43;;;;;;;7.90;6.73;;;;;;;4.40;100.00;100275.34;5076266;28;20656;-71
2023/12/09 09:36:10;;;;;;;12.03;7.37;;;;;;;4.40;100.00;100263.94;5079547;28;20223;-73
2023/12/09 09:38:38;;;;;;;10.73;7.90;;;;;;;4.40;100.00;100272.72;5074116;28;20231;-71
2023/12/09 09:41:11;;;;;;;10.97;6.53;;;;;;;4.42;100.00;100270.84;5080709;28;20743;-71
2023/12/09 09:43:45;;;;;;;12.20;7.17;;;;;;;4.46;100.00;100271.59;5079918;28;20196;-71
2023/12/09 09:46:13;;;;;;;8.00;5.03;;;;;;;4.43;100.00;100269.09;5081426;28;20217;-72
2023/12/09 09:48:44;;;;;;;8.53;5.63;;;;;;;4.47;100.00;100268.03;5080462;28;20569;-72
2023/12/09 09:51:17;;;;;;;10.20;7.27;;;;;;;4.51;100.00;100264.31;5080051;28;20201;-72
2023/12/09 09:53:53;;;;;;;11.03;6.63;;;;;;;4.54;100.00;100264.19;5081174;28;20214;-72
2023/12/09 09:56:21;;;;;;;7.80;4.97;;;;;;;4.58;100.00;100267.53;5078183;28;20196;-72
2023/12/09 09:58:47;;;;;;;11.47;6.23;;;;;;;4.63;100.00;100265.56;5080641;28;20612;-72
2023/12/09 10:01:18;;;;;;;9.17;6.10;;;;;;;4.63;100.00;100247.94;5082683;28;20220;-72
2023/12/09 10:03:45;;;;;;;6.27;4.97;;;;;;;4.74;100.00;100247.44;5080740;28;20389;-73
2023/12/09 10:06:14;;;;;;;7.63;4.20;;;;;;;4.80;100.00;100226.06;5079635;28;20204;-71
2023/12/09 10:08:40;;;;;;;8.83;4.37;;;;;;;4.80;100.00;100211.09;5081174;28;20204;-72
2023/12/09 10:11:08;;;;;;;7.07;4.63;;;;;;;4.85;100.00;100208.22;5079697;28;20292;-71
2023/12/09 10:13:35;;;;;;;10.63;5.47;;;;;;;4.81;100.00;100209.31;5080114;28;20212;-72
2023/12/09 10:16:01;;;;;;;8.50;4.70;;;;;;;4.80;100.00;100205.81;5081664;28;20204;-72
2023/12/09 10:18:28;;;;;;;8.47;5.50;;;;;;;4.83;100.00;100189.00;5078218;28;20229;-72
2023/12/09 10:20:54;;;;;;;8.00;4.77;;;;;;;4.84;100.00;100188.91;5082812;28;20232;-71
2023/12/09 10:23:22;;;;;;;7.63;4.87;;;;;;;4.86;100.00;100196.75;5079675;28;20204;-72
2023/12/09 10:25:49;;;;;;;8.60;5.60;;;;;;;4.85;100.00;100195.88;5080651;28;20212;-73
2023/12/09 10:28:15;;;;;;;8.77;5.17;;;;;;;4.91;100.00;100207.09;5079175;28;20224;-71
2023/12/09 10:30:42;;;;;;;9.70;5.00;;;;;;;4.94;100.00;100199.88;5081858;28;20205;-72
2023/12/09 10:33:09;;;;;;;9.40;4.70;;;;;;;4.95;100.00;100193.69;5080878;28;20250;-72
2023/12/09 10:35:36;;;;;;;9.60;5.50;;;;;;;4.94;100.00;100180.56;5080622;28;20200;-72
2023/12/09 10:38:05;;;;;;;11.43;5.60;;;;;;;4.97;100.00;100177.78;5079143;28;20229;-71
2023/12/09 10:40:33;;;;;;;9.27;5.57;;;;;;;4.99;100.00;100179.44;5082510;28;20200;-70
2023/12/09 10:43:02;;;;;;;8.57;5.00;;;;;;;5.06;100.00;100172.06;5080045;28;20228;-72
2023/12/09 10:45:29;;;;;;;9.50;5.33;;;;;;;5.09;100.00;100166.63;5080793;28;20212;-71
2023/12/09 10:47:55;;;;;;;11.93;5.60;;;;;;;5.12;100.00;100162.06;5080866;28;20225;-71
2023/12/09 10:50:22;;;;;;;8.10;5.60;;;;;;;5.17;100.00;100157.41;5079058;28;20205;-71
2023/12/09 10:52:48;;;;;;;9.30;6.07;;;;;;;5.21;100.00;100151.03;5078754;28;20284;-72
2023/12/09 10:55:15;;;;;;;11.03;5.40;;;;;;;5.22;100.00;100133.41;5079900;28;20208;-73
2023/12/09 10:57:44;;;;;;;8.40;5.53;;;;;;;5.26;100.00;100124.41;5080358;28;20223;-70
2023/12/09 11:00:14;;;;;;;7.20;5.57;;;;;;;5.28;100.00;100124.34;5079622;28;20204;-71
2023/12/09 11:02:42;;;;;;;9.40;5.97;;;;;;;5.28;100.00;100127.84;5073189;28;20222;-72
2023/12/09 11:05:09;;;;;;;9.77;5.43;;;;;;;5.32;100.00;100120.63;5077669;28;20262;-71
2023/12/09 11:07:37;;;;;;;9.93;6.07;;;;;;;5.29;100.00;100110.22;5078271;28;20274;-72
2023/12/09 11:10:06;;;;;;;10.63;5.80;;;;;;;5.28;100.00;100112.00;5075144;28;20204;-71
2023/12/09 11:12:33;;;;;;;10.17;6.67;;;;;;;5.31;100.00;100101.28;5078606;28;20215;-71
2023/12/09 11:15:07;;;;;;;9.03;5.70;;;;;;;5.35;100.00;100102.84;5078462;28;20774;-70
2023/12/09 11:17:35;;;;;;;11.93;6.77;;;;;;;5.38;100.00;100092.09;5076293;28;20310;-73